EDDG/FMO METAR and TAF weather

Enter ICAO airport designator
Station Type Date Time Source
EDDG METAR 2019/04/25 21:50 UTC NOAA

EDDG 252150Z 25006KT CAVOK 13/08 Q1009 NOSIG


Station Type Date Time Source
EDDG Decoded METAR 2019/04/25 21:50 UTC NOAA

Muenster / Osnabrueck, Germany (EDDG) 52-08N 007-42E 53M
Apr 25, 2019 - 05:50 PM EDT / 2019.04.25 2150 UTC
Wind: from the WSW (250 degrees) at 7 MPH (6 KT):0
Visibility: greater than 7 mile(s):0
Temperature: 55 F (13 C)
Dew Point: 46 F (8 C)
Relative Humidity: 71%
Pressure (altimeter): 29.80 in. Hg (1009 hPa)
ob: EDDG 252150Z 25006KT CAVOK 13/08 Q1009 NOSIG
cycle: 22

Station Type Date Time Source
EDDG TAF 2019/04/25 20:14 UTC NOAA

TAF
AMD EDDG 252056Z 2520/2618 22007KT CAVOK
TEMPO 2520/2602 26015KT
BECMG 2607/2609 24012KT
BECMG 2616/2618 24004KT

Example: see airport list